createdAt,value
2022-08-18T00:00:29.591Z,92566.97
2022-08-18T00:03:24.591Z,92567.03
2022-08-18T00:05:47.187Z,92571.28
2022-08-18T00:08:13.818Z,92580.19
2022-08-18T00:10:43.346Z,92575.38
2022-08-18T00:13:09.883Z,92572.72
2022-08-18T00:15:41.793Z,92574.28
2022-08-18T00:18:15.460Z,92580.94
2022-08-18T00:20:42.093Z,92584.69
2022-08-18T00:23:09.465Z,92584.22
2022-08-18T00:25:36.071Z,92584.81
2022-08-18T00:28:02.706Z,92575.28
2022-08-18T00:30:29.236Z,92576.38
2022-08-18T00:32:58.571Z,92568.25
2022-08-18T00:35:32.324Z,92561.38
2022-08-18T00:38:01.868Z,92561.19
2022-08-18T00:40:39.142Z,92549.97
2022-08-18T00:43:07.689Z,92554.81
2022-08-18T00:45:37.602Z,92549.91
2022-08-18T00:48:06.055Z,92550.81
2022-08-18T00:50:42.851Z,92541.56
2022-08-18T00:53:15.132Z,92542.81
2022-08-18T00:55:54.043Z,92537.69
2022-08-18T00:58:28.293Z,92537.47
2022-08-18T01:00:55.080Z,92532.78
2022-08-18T01:03:24.651Z,92535.41
2022-08-18T01:06:05.699Z,92538.66
2022-08-18T01:08:32.460Z,92542.22
2022-08-18T01:11:02.772Z,92535.38
2022-08-18T01:13:32.934Z,92534.69
2022-08-18T01:16:20.342Z,92544.09
2022-08-18T01:19:05.205Z,92549.56
2022-08-18T01:21:51.924Z,92547.22
2022-08-18T01:24:22.158Z,92550.34
2022-08-18T01:26:51.898Z,92545.97
2022-08-18T01:29:19.880Z,92538.03
2022-08-18T01:31:56.025Z,92543.91
2022-08-18T01:34:26.483Z,92539.69
2022-08-18T01:36:54.959Z,92541.09
2022-08-18T01:40:59.973Z,92544.22
2022-08-18T01:42:09.389Z,92541.09
2022-08-18T01:44:36.209Z,92541.25
2022-08-18T01:47:03.352Z,92551.09
2022-08-18T01:49:29.896Z,92556.38
2022-08-18T01:51:56.430Z,92544.56
2022-08-18T01:54:22.972Z,92539.88
2022-08-18T01:56:49.506Z,92537.69
2022-08-18T01:59:16.253Z,92533.81
2022-08-18T02:01:50.439Z,92523.34
2022-08-18T02:04:35.727Z,92524.16
2022-08-18T02:07:06.653Z,92517.34
2022-08-18T02:09:33.595Z,92511.41
2022-08-18T02:12:01.195Z,92515.63
2022-08-18T02:18:30.435Z,92517.81
2022-08-18T02:21:15.351Z,92505.28
2022-08-18T02:23:52.989Z,92508.41
2022-08-18T02:26:21.293Z,92508.25
2022-08-18T02:28:47.881Z,92508.53
2022-08-18T02:31:17.755Z,92508.41
2022-08-18T02:33:48.516Z,92506.25
2022-08-18T02:36:20.081Z,92507.81
2022-08-18T02:38:54.628Z,92494.06
2022-08-18T02:41:29.542Z,92487.38
2022-08-18T02:43:57.409Z,92494.06
2022-08-18T02:46:24.375Z,92493.91
2022-08-18T02:48:57.052Z,92496.22
2022-08-18T02:51:25.994Z,92490.16
2022-08-18T02:53:53.757Z,92489.56
2022-08-18T02:56:41.401Z,92484.69
2022-08-18T02:59:11.935Z,92480.94
2022-08-18T03:01:42.579Z,92475.47
2022-08-18T03:04:12.424Z,92476.84
2022-08-18T03:06:39.560Z,92472.16
2022-08-18T03:09:08.403Z,92466.50
2022-08-18T03:11:36.119Z,92471.22
2022-08-18T03:14:05.315Z,92462.00
2022-08-18T03:16:33.109Z,92464.16
2022-08-18T03:19:01.736Z,92454.66
2022-08-18T03:21:31.232Z,92453.69
2022-08-18T03:24:00.745Z,92455.09
2022-08-18T03:26:29.995Z,92456.16
2022-08-18T03:28:58.279Z,92450.06
2022-08-18T03:31:28.053Z,92449.16
2022-08-18T03:33:57.122Z,92451.22
2022-08-18T03:36:29.408Z,92458.06
2022-08-18T03:38:56.719Z,92462.47
2022-08-18T03:41:57.516Z,92460.63
2022-08-18T03:44:15.271Z,92464.22
2022-08-18T03:46:44.271Z,92466.69
2022-08-18T03:49:12.089Z,92459.63
2022-08-18T03:51:39.124Z,92463.56
2022-08-18T03:54:06.116Z,92463.91
2022-08-18T03:56:35.323Z,92467.47
2022-08-18T03:59:14.354Z,92466.69
2022-08-18T04:01:42.731Z,92456.09
2022-08-18T04:04:12.761Z,92460.63
2022-08-18T04:06:45.541Z,92456.97
2022-08-18T04:09:14.720Z,92455.25
2022-08-18T04:11:43.462Z,92464.28
2022-08-18T04:14:13.440Z,92469.56
2022-08-18T04:16:40.857Z,92471.94
2022-08-18T04:19:09.530Z,92470.38
2022-08-18T04:21:38.663Z,92477.53
2022-08-18T04:24:07.415Z,92482.25
2022-08-18T04:26:37.525Z,92489.25
2022-08-18T04:29:06.187Z,92496.13
2022-08-18T04:31:32.706Z,92497.13
2022-08-18T04:34:00.896Z,92502.28
2022-08-18T04:36:28.983Z,92515.53
2022-08-18T04:38:56.413Z,92512.41
2022-08-18T04:41:27.419Z,92505.53
2022-08-18T04:43:55.634Z,92503.97
2022-08-18T04:46:22.755Z,92508.19
2022-08-18T04:48:52.291Z,92510.84
2022-08-18T04:52:32.049Z,92497.88
2022-08-18T04:54:06.837Z,92493.84
2022-08-18T04:56:38.000Z,92491.69
2022-08-18T04:59:08.650Z,92467.63
2022-08-18T05:01:40.632Z,92460.34
2022-08-18T05:04:07.596Z,92453.66
2022-08-18T05:06:35.143Z,92449.25
2022-08-18T05:09:06.284Z,92454.56
2022-08-18T05:11:34.549Z,92454.44
2022-08-18T05:14:06.639Z,92450.69
2022-08-18T05:16:36.440Z,92457.72
2022-08-18T05:19:16.428Z,92463.03
2022-08-18T05:21:46.187Z,92462.75
2022-08-18T05:24:19.042Z,92457.91
2022-08-18T05:26:46.391Z,92451.53
2022-08-18T05:29:18.458Z,92454.19
2022-08-18T05:31:48.149Z,92454.00
2022-08-18T05:34:16.276Z,92444.19
2022-08-18T05:36:48.579Z,92441.53
2022-08-18T05:39:36.543Z,92429.84
2022-08-18T05:42:13.050Z,92431.69
2022-08-18T05:44:43.268Z,92434.06
2022-08-18T05:47:30.501Z,92431.13
2022-08-18T05:50:03.985Z,92440.50
2022-08-18T05:52:37.594Z,92442.53
2022-08-18T05:55:49.435Z,92443.47
2022-08-18T05:58:21.814Z,92465.47
2022-08-18T06:00:59.856Z,92486.97
2022-08-18T06:03:45.209Z,92511.16
2022-08-18T06:06:29.534Z,92523.34
2022-08-18T06:08:58.533Z,92523.41
2022-08-18T06:11:25.836Z,92531.41
2022-08-18T06:13:57.700Z,92532.97
2022-08-18T06:16:48.508Z,92544.06
2022-08-18T06:19:41.146Z,92540.91
2022-08-18T06:22:36.807Z,92544.56
2022-08-18T06:25:29.821Z,92545.94
2022-08-18T06:28:14.211Z,92539.28
2022-08-18T06:31:02.154Z,92526.31
2022-08-18T06:33:42.866Z,92522.25
2022-08-18T06:36:27.510Z,92524.47
2022-08-18T06:39:26.397Z,92532.59
2022-08-18T06:41:54.623Z,92544.00
2022-08-18T06:44:29.181Z,92542.59
2022-08-18T06:47:04.405Z,92535.44
2022-08-18T06:50:19.137Z,92551.81
2022-08-18T06:52:58.305Z,92548.25
2022-08-18T06:55:39.714Z,92550.78
2022-08-18T06:58:25.143Z,92547.81
2022-08-18T07:00:52.043Z,92550.25
2022-08-18T07:03:40.158Z,92549.59
2022-08-18T07:06:28.591Z,92549.78
2022-08-18T07:09:15.998Z,92540.59
2022-08-18T07:11:58.592Z,92543.91
2022-08-18T07:14:26.043Z,92534.44
2022-08-18T07:17:11.081Z,92533.66
2022-08-18T07:19:38.283Z,92529.78
2022-08-18T07:22:09.520Z,92540.09
2022-08-18T07:24:44.601Z,92524.44
2022-08-18T07:27:12.877Z,92518.84
2022-08-18T07:29:59.185Z,92517.44
2022-08-18T07:32:32.610Z,92525.25
2022-08-18T07:35:03.473Z,92514.16
2022-08-18T07:37:53.300Z,92498.22
2022-08-18T07:40:19.959Z,92506.94
2022-08-18T07:43:05.279Z,92512.59
2022-08-18T07:45:37.049Z,92520.59
2022-08-18T07:51:37.169Z,92547.63
2022-08-18T07:54:25.272Z,92548.22
2022-08-18T07:57:20.099Z,92528.97
2022-08-18T08:00:17.372Z,92523.75
2022-08-18T08:03:30.606Z,92521.88
2022-08-18T08:06:06.015Z,92517.66
2022-08-18T08:08:54.960Z,92517.44
2022-08-18T08:11:21.634Z,92538.69
2022-08-18T08:14:00.221Z,92546.53
2022-08-18T08:16:50.166Z,92533.84
2022-08-18T08:20:00.157Z,92531.19
2022-08-18T08:22:37.958Z,92558.41
2022-08-18T08:25:44.619Z,92554.34
2022-08-18T08:28:45.838Z,92514.69
2022-08-18T08:31:38.193Z,92501.78
2022-08-18T08:34:15.747Z,92508.59
2022-08-18T08:36:46.478Z,92498.47
2022-08-18T08:39:46.412Z,92488.84
2022-08-18T08:42:30.295Z,92479.59
2022-08-18T08:45:10.008Z,92488.22
2022-08-18T08:48:06.614Z,92494.88
2022-08-18T08:50:41.236Z,92483.69
2022-08-18T08:53:18.933Z,92472.06
2022-08-18T08:55:50.773Z,92462.59
2022-08-18T08:58:26.430Z,92465.19
2022-08-18T09:00:55.085Z,92470.25
2022-08-18T09:03:43.410Z,92480.34
2022-08-18T09:06:18.137Z,92484.81
2022-08-18T09:09:02.686Z,92495.06
2022-08-18T09:11:48.316Z,92496.84
2022-08-18T09:14:17.509Z,92503.41
2022-08-18T09:17:10.907Z,92510.13
2022-08-18T09:20:04.488Z,92518.69
2022-08-18T09:23:12.574Z,92531.16
2022-08-18T09:25:39.247Z,92537.75
2022-08-18T09:28:28.986Z,92534.91
2022-08-18T09:31:08.992Z,92536.28
2022-08-18T09:33:40.487Z,92535.97
2022-08-18T09:36:13.053Z,92519.50
2022-08-18T09:39:26.580Z,92511.97
2022-08-18T09:42:08.497Z,92510.25
2022-08-18T09:44:40.878Z,92504.19
2022-08-18T09:47:10.176Z,92509.28
2022-08-18T09:52:37.536Z,92508.78
2022-08-18T09:55:26.865Z,92494.31
2022-08-18T09:58:19.317Z,92481.00
2022-08-18T10:01:06.449Z,92473.50
2022-08-18T10:03:33.049Z,92467.59
2022-08-18T10:06:12.473Z,92463.47
2022-08-18T10:09:01.842Z,92452.56
2022-08-18T10:12:15.733Z,92457.16
2022-08-18T10:15:32.977Z,92458.34
2022-08-18T10:18:10.060Z,92460.38
2022-08-18T10:20:49.231Z,92472.19
2022-08-18T10:24:32.102Z,92466.47
2022-08-18T10:26:55.363Z,92471.06
2022-08-18T10:29:25.728Z,92465.25
2022-08-18T10:32:05.256Z,92463.91
2022-08-18T10:34:51.421Z,92463.25
2022-08-18T10:37:39.448Z,92450.91
2022-08-18T10:40:08.970Z,92461.91
2022-08-18T10:46:24.242Z,92446.56
2022-08-18T10:48:40.407Z,92452.81
2022-08-18T10:51:27.798Z,92458.59
2022-08-18T10:54:20.328Z,92453.75
2022-08-18T10:56:52.320Z,92448.72
2022-08-18T11:03:13.966Z,92441.47
2022-08-18T11:05:44.436Z,92428.03
2022-08-18T11:08:17.365Z,92423.53
2022-08-18T11:11:24.913Z,92413.72
2022-08-18T11:13:56.927Z,92407.69
2022-08-18T11:16:36.901Z,92402.63
2022-08-18T11:19:14.380Z,92402.22
2022-08-18T11:21:51.546Z,92411.56
2022-08-18T11:24:29.677Z,92410.59
2022-08-18T11:27:23.499Z,92405.78
2022-08-18T11:29:51.482Z,92397.06
2022-08-18T11:32:24.497Z,92393.63
2022-08-18T11:34:59.788Z,92393.41
2022-08-18T11:37:49.032Z,92389.16
2022-08-18T11:40:51.596Z,92387.69
2022-08-18T11:43:10.785Z,92385.66
2022-08-18T11:45:44.119Z,92376.88
2022-08-18T11:48:39.129Z,92378.34
2022-08-18T11:51:28.445Z,92390.41
2022-08-18T11:54:00.603Z,92393.47
2022-08-18T11:56:37.781Z,92388.97
2022-08-18T11:59:53.542Z,92397.53
2022-08-18T12:02:17.903Z,92402.53
2022-08-18T12:04:50.491Z,92401.03
2022-08-18T12:07:33.933Z,92401.13
2022-08-18T12:10:16.294Z,92399.16
2022-08-18T12:12:52.043Z,92402.28
2022-08-18T12:18:05.332Z,92403.41
2022-08-18T12:20:31.842Z,92398.91
2022-08-18T12:22:58.481Z,92398.56
2022-08-18T12:25:25.804Z,92388.34
2022-08-18T12:27:54.347Z,92394.59
2022-08-18T12:30:20.931Z,92399.63
2022-08-18T12:35:34.741Z,92388.16
2022-08-18T12:38:12.660Z,92387.31
2022-08-18T12:40:41.911Z,92382.91
2022-08-18T12:43:09.048Z,92385.59
2022-08-18T12:48:22.587Z,92378.00
2022-08-18T12:53:38.357Z,92378.00
2022-08-18T12:56:30.338Z,92367.28
2022-08-18T12:59:03.927Z,92361.56
2022-08-18T13:01:32.842Z,92368.91
2022-08-18T13:04:13.133Z,92368.16
2022-08-18T13:06:58.799Z,92356.47
2022-08-18T13:09:35.057Z,92357.78
2022-08-18T13:12:15.135Z,92351.13
2022-08-18T13:14:43.330Z,92346.47
2022-08-18T13:17:15.295Z,92341.34
2022-08-18T13:19:56.976Z,92346.00
2022-08-18T13:22:24.279Z,92347.13
2022-08-18T13:25:01.140Z,92352.88
2022-08-18T13:27:32.936Z,92349.34
2022-08-18T13:30:29.303Z,92356.16
2022-08-18T13:33:00.717Z,92347.44
2022-08-18T13:35:35.287Z,92346.56
2022-08-18T13:38:17.447Z,92348.66
2022-08-18T13:40:48.779Z,92353.56
2022-08-18T13:43:18.027Z,92355.56
2022-08-18T13:45:46.935Z,92348.31
2022-08-18T13:48:19.389Z,92348.06
2022-08-18T13:50:46.249Z,92351.63
2022-08-18T13:53:19.361Z,92354.19
2022-08-18T13:55:46.943Z,92358.13
2022-08-18T13:58:20.156Z,92364.72
2022-08-18T14:03:30.831Z,92366.56
2022-08-18T14:06:03.572Z,92381.81
2022-08-18T14:08:33.923Z,92382.09
2022-08-18T14:11:02.607Z,92379.75
2022-08-18T14:13:29.589Z,92379.56
2022-08-18T14:16:04.968Z,92370.31
2022-08-18T14:18:31.679Z,92384.47
2022-08-18T14:21:17.113Z,92390.44
2022-08-18T14:24:10.725Z,92397.59
2022-08-18T14:26:50.915Z,92391.03
2022-08-18T14:29:47.414Z,92386.69
2022-08-18T14:32:07.103Z,92373.34
2022-08-18T14:34:33.626Z,92371.88
2022-08-18T14:37:00.256Z,92388.25
2022-08-18T14:39:28.228Z,92389.00
2022-08-18T14:41:58.462Z,92395.03
2022-08-18T14:44:31.876Z,92397.25
2022-08-18T14:46:58.987Z,92407.81
2022-08-18T14:49:29.178Z,92412.06
2022-08-18T14:51:58.646Z,92411.25
2022-08-18T14:54:28.525Z,92409.34
2022-08-18T14:56:56.681Z,92414.50
2022-08-18T14:59:25.117Z,92408.59
2022-08-18T15:01:52.394Z,92408.84
2022-08-18T15:04:20.988Z,92424.84
2022-08-18T15:06:56.653Z,92426.28
2022-08-18T15:09:27.711Z,92432.41
2022-08-18T15:11:58.841Z,92428.84
2022-08-18T15:14:32.837Z,92431.63
2022-08-18T15:17:02.666Z,92437.06
2022-08-18T15:19:58.796Z,92438.19
2022-08-18T15:22:34.456Z,92442.72
2022-08-18T15:25:21.331Z,92435.66
2022-08-18T15:27:52.452Z,92440.06
2022-08-18T15:30:20.700Z,92440.72
2022-08-18T15:32:49.885Z,92438.75
2022-08-18T15:35:17.486Z,92438.97
2022-08-18T15:37:48.148Z,92433.81
2022-08-18T15:40:31.200Z,92438.47
2022-08-18T15:43:09.918Z,92440.59
2022-08-18T15:45:43.237Z,92438.53
2022-08-18T15:48:25.117Z,92428.41
2022-08-18T15:50:51.964Z,92429.44
2022-08-18T15:53:25.380Z,92420.91
2022-08-18T15:55:56.360Z,92432.00
2022-08-18T15:58:26.903Z,92426.53
2022-08-18T16:00:56.426Z,92424.22
2022-08-18T16:03:25.634Z,92431.75
2022-08-18T16:05:54.490Z,92429.84
2022-08-18T16:08:23.953Z,92428.69
2022-08-18T16:10:51.161Z,92428.53
2022-08-18T16:13:17.907Z,92427.38
2022-08-18T16:15:48.054Z,92426.97
2022-08-18T16:18:17.150Z,92426.06
2022-08-18T16:20:44.872Z,92420.28
2022-08-18T16:23:15.533Z,92422.47
2022-08-18T16:25:43.260Z,92422.16
2022-08-18T16:28:13.150Z,92414.22
2022-08-18T16:30:40.331Z,92415.59
2022-08-18T16:33:07.024Z,92421.69
2022-08-18T16:35:34.585Z,92430.91
2022-08-18T16:38:09.027Z,92421.84
2022-08-18T16:40:36.561Z,92421.84
2022-08-18T16:43:04.003Z,92428.75
2022-08-18T16:45:32.912Z,92430.00
2022-08-18T16:48:00.166Z,92423.91
2022-08-18T16:50:27.328Z,92425.97
2022-08-18T16:52:54.289Z,92420.97
2022-08-18T16:55:21.062Z,92428.34
2022-08-18T16:58:05.999Z,92429.28
2022-08-18T17:00:55.015Z,92421.56
2022-08-18T17:03:44.122Z,92422.47
2022-08-18T17:06:13.955Z,92415.03
2022-08-18T17:08:41.786Z,92416.28
2022-08-18T17:11:12.601Z,92405.00
2022-08-18T17:13:40.137Z,92411.28
2022-08-18T17:16:08.460Z,92408.97
2022-08-18T17:18:36.215Z,92406.50
2022-08-18T17:21:05.036Z,92405.25
2022-08-18T17:23:32.428Z,92406.81
2022-08-18T17:26:00.612Z,92413.56
2022-08-18T17:28:39.809Z,92409.16
2022-08-18T17:31:12.775Z,92398.06
2022-08-18T17:33:42.892Z,92406.94
2022-08-18T17:36:21.729Z,92412.44
2022-08-18T17:38:58.463Z,92413.06
2022-08-18T17:41:25.455Z,92416.69
2022-08-18T17:43:56.230Z,92412.94
2022-08-18T17:46:29.654Z,92415.13
2022-08-18T17:49:00.997Z,92419.84
2022-08-18T17:51:48.937Z,92417.47
2022-08-18T17:54:33.991Z,92420.44
2022-08-18T17:57:36.704Z,92418.59
2022-08-18T18:00:12.040Z,92412.00
2022-08-18T18:02:41.263Z,92418.59
2022-08-18T18:05:11.578Z,92417.34
2022-08-18T18:07:52.250Z,92414.50
2022-08-18T18:10:51.090Z,92426.25
2022-08-18T18:13:23.543Z,92419.94
2022-08-18T18:15:56.562Z,92435.16
2022-08-18T18:18:43.074Z,92427.16
2022-08-18T18:21:15.674Z,92430.94
2022-08-18T18:24:08.311Z,92430.47
2022-08-18T18:26:37.510Z,92428.63
2022-08-18T18:29:38.099Z,92434.41
2022-08-18T18:32:27.058Z,92437.69
2022-08-18T18:35:27.565Z,92441.91
2022-08-18T18:37:56.383Z,92451.47
2022-08-18T18:40:22.910Z,92445.03
2022-08-18T18:42:49.518Z,92445.53
2022-08-18T18:45:36.259Z,92443.22
2022-08-18T18:48:38.668Z,92454.94
2022-08-18T18:51:13.203Z,92446.63
2022-08-18T18:53:56.230Z,92458.38
2022-08-18T18:56:34.198Z,92447.28
2022-08-18T18:59:14.105Z,92450.53
2022-08-18T19:02:33.848Z,92454.75
2022-08-18T19:05:15.158Z,92452.91
2022-08-18T19:08:13.502Z,92444.78
2022-08-18T19:10:55.159Z,92451.81
2022-08-18T19:13:33.303Z,92455.56
2022-08-18T19:16:23.750Z,92465.88
2022-08-18T19:19:35.018Z,92466.19
2022-08-18T19:22:03.597Z,92472.75
2022-08-18T19:24:38.531Z,92468.22
2022-08-18T19:27:07.196Z,92469.31
2022-08-18T19:29:41.564Z,92464.94
2022-08-18T19:32:19.758Z,92467.91
2022-08-18T19:34:54.466Z,92467.78
2022-08-18T19:38:04.303Z,92472.16
2022-08-18T19:40:47.279Z,92475.31
2022-08-18T19:43:29.698Z,92481.56
2022-08-18T19:46:20.754Z,92484.53
2022-08-18T19:48:58.323Z,92478.59
2022-08-18T19:51:33.759Z,92489.69
2022-08-18T19:54:15.179Z,92489.84
2022-08-18T19:56:57.099Z,92493.28
2022-08-18T19:59:53.326Z,92488.28
2022-08-18T20:02:51.527Z,92496.41
2022-08-18T20:05:33.177Z,92491.56
2022-08-18T20:08:28.289Z,92489.84
2022-08-18T20:11:41.210Z,92491.28
2022-08-18T20:14:14.624Z,92492.69
2022-08-18T20:16:44.888Z,92498.75
2022-08-18T20:19:42.071Z,92500.66
2022-08-18T20:22:27.153Z,92504.09
2022-08-18T20:25:05.342Z,92499.25
2022-08-18T20:27:49.360Z,92503.47
2022-08-18T20:30:24.831Z,92501.41
2022-08-18T20:33:09.183Z,92508.63
2022-08-18T20:35:45.799Z,92514.41
2022-08-18T20:38:20.103Z,92511.59
2022-08-18T20:40:50.898Z,92518.16
2022-08-18T20:43:25.846Z,92513.31
2022-08-18T20:45:59.450Z,92520.22
2022-08-18T20:48:46.070Z,92525.72
2022-08-18T20:51:19.134Z,92524.91
2022-08-18T20:53:58.670Z,92516.47
2022-08-18T20:56:46.458Z,92527.09
2022-08-18T20:59:21.025Z,92526.16
2022-08-18T21:02:03.274Z,92527.06
2022-08-18T21:04:59.027Z,92524.88
2022-08-18T21:07:37.253Z,92528.44
2022-08-18T21:10:12.466Z,92535.34
2022-08-18T21:12:51.952Z,92534.88
2022-08-18T21:15:21.978Z,92535.03
2022-08-18T21:17:58.195Z,92530.38
2022-08-18T21:20:25.022Z,92536.31
2022-08-18T21:23:02.516Z,92534.59
2022-08-18T21:25:29.332Z,92543.69
2022-08-18T21:27:57.142Z,92550.41
2022-08-18T21:30:26.526Z,92553.53
2022-08-18T21:32:53.472Z,92555.25
2022-08-18T21:35:28.231Z,92550.41
2022-08-18T21:38:06.364Z,92545.09
2022-08-18T21:40:49.111Z,92549.00
2022-08-18T21:43:33.743Z,92544.47
2022-08-18T21:46:01.901Z,92549.81
2022-08-18T21:48:29.238Z,92541.69
2022-08-18T21:51:00.458Z,92542.13
2022-08-18T21:53:31.240Z,92540.13
2022-08-18T21:55:58.927Z,92543.06
2022-08-18T21:58:33.665Z,92551.53
2022-08-18T22:01:23.578Z,92554.19
2022-08-18T22:03:59.727Z,92560.47
2022-08-18T22:06:41.038Z,92565.16
2022-08-18T22:09:33.481Z,92562.50
2022-08-18T22:12:47.776Z,92563.59
2022-08-18T22:15:43.847Z,92559.19
2022-08-18T22:18:16.538Z,92558.56
2022-08-18T22:20:52.686Z,92554.53
2022-08-18T22:24:04.028Z,92553.88
2022-08-18T22:26:37.086Z,92554.81
2022-08-18T22:29:06.507Z,92557.47
2022-08-18T22:31:44.941Z,92563.25
2022-08-18T22:34:17.490Z,92553.59
2022-08-18T22:37:00.826Z,92550.44
2022-08-18T22:39:39.456Z,92551.06
2022-08-18T22:42:07.860Z,92548.88
2022-08-18T22:44:34.366Z,92552.50
2022-08-18T22:47:03.185Z,92537.63
2022-08-18T22:49:30.464Z,92547.66
2022-08-18T22:51:57.778Z,92545.75
2022-08-18T22:54:26.872Z,92548.28
2022-08-18T22:56:53.876Z,92544.81
2022-08-18T22:59:23.381Z,92549.03
2022-08-18T23:01:52.238Z,92543.25
2022-08-18T23:04:22.452Z,92546.97
2022-08-18T23:06:52.297Z,92548.28
2022-08-18T23:09:24.973Z,92555.91
2022-08-18T23:11:52.495Z,92554.06
2022-08-18T23:14:19.273Z,92554.34
2022-08-18T23:16:47.085Z,92547.78
2022-08-18T23:19:15.991Z,92550.44
2022-08-18T23:21:43.612Z,92551.50
2022-08-18T23:24:14.241Z,92545.44
2022-08-18T23:26:41.593Z,92550.44
2022-08-18T23:29:11.640Z,92549.19
2022-08-18T23:31:41.050Z,92553.69
2022-08-18T23:34:08.566Z,92546.22
2022-08-18T23:36:41.301Z,92540.91
2022-08-18T23:39:10.774Z,92541.50
2022-08-18T23:41:38.299Z,92544.94
2022-08-18T23:44:06.575Z,92543.69
2022-08-18T23:46:36.503Z,92543.38
2022-08-18T23:49:04.793Z,92537.28
2022-08-18T23:51:43.205Z,92545.59
2022-08-18T23:54:17.733Z,92541.19
2022-08-18T23:56:47.280Z,92535.59
2022-08-18T23:59:15.276Z,92529.31
